Time;durP1;ratioP1;P1;durP2;ratioP2;P2;SDS_P1;SDS_P2;PMS_P1;PMS_P2;Temp;Humidity;BMP_temperature;BMP_pressure;BME280_temperature;BME280_humidity;BME280_pressure;Samples;Min_cycle;Max_cycle;Signal;HPM_P1;HPM_P2
2021/11/09 00:01:05;;;;;;;;;;;;;;;;;;5127426;28;19931;-78
2021/11/09 00:03:35;;;;;;;;;;;;;;;;;;5127387;28;19951;-78
2021/11/09 00:06:10;;;;;;;;;;;;;;;;;;5127392;28;19992;-78
2021/11/09 00:08:43;;;;;;;;;;;;;;;;;;5128008;28;19927;-77
2021/11/09 00:11:10;;;;;;;;;;;;;;;;;;5129835;27;20293;-78
2021/11/09 00:13:37;;;;;;;;;;;;;;;;;;5118526;27;19942;-78
2021/11/09 00:16:05;;;;;;;;;;;;;;;;;;5132505;27;19924;-78
2021/11/09 00:18:32;;;;;;;;;;;;;;;;;;5132707;27;19927;-78
2021/11/09 00:20:59;;;;;;;;;;;;;;;;;;5130658;27;20288;-79
2021/11/09 00:23:27;;;;;;;;;;;;;;;;;;5129502;27;20000;-78
2021/11/09 00:25:56;;;;;;;;;;;;;;;;;;5130828;27;19927;-78
2021/11/09 00:28:23;;;;;;;;;;;;;;;;;;5132335;27;20375;-78
2021/11/09 00:30:50;;;;;;;;;;;;;;;;;;5133686;27;19935;-78
2021/11/09 00:33:17;;;;;;;;;;;;;;;;;;5130851;27;19927;-78
2021/11/09 00:35:44;;;;;;;;;;;;;;;;;;5130902;27;19923;-78
2021/11/09 00:38:12;;;;;;;;;;;;;;;;;;5130290;27;20363;-78
2021/11/09 00:40:40;;;;;;;;;;;;;;;;;;5131109;27;19934;-78
2021/11/09 00:43:10;;;;;;;;;;;;;;;;;;5130711;27;19931;-78
2021/11/09 00:45:38;;;;;;;;;;;;;;;;;;5130714;27;19931;-79
2021/11/09 00:48:06;;;;;;;;;;;;;;;;;;5130246;27;19927;-78
2021/11/09 00:50:34;;;;;;;;;;;;;;;;;;5131317;27;19924;-78
2021/11/09 00:53:01;;;;;;;;;;;;;;;;;;5131391;27;19923;-79
2021/11/09 00:55:29;;;;;;;;;;;;;;;;;;5128635;27;19935;-78
2021/11/09 00:57:56;;;;;;;;;;;;;;;;;;5129123;27;19952;-81
2021/11/09 01:00:25;;;;;;;;;;;;;;;;;;5131871;27;19928;-81
2021/11/09 01:02:53;;;;;;;;;;;;;;;;;;5128947;27;19927;-80
2021/11/09 01:05:23;;;;;;;;;;;;;;;;;;5130489;27;20042;-81
2021/11/09 01:07:52;;;;;;;;;;;;;;;;;;5129715;27;19924;-81
2021/11/09 01:10:20;;;;;;;;;;;;;;;;;;5131388;27;19999;-81
2021/11/09 01:12:50;;;;;;;;;;;;;;;;;;5120241;27;19999;-78
2021/11/09 01:15:17;;;;;;;;;;;;;;;;;;5130795;27;20030;-78
2021/11/09 01:17:46;;;;;;;;;;;;;;;;;;5129864;27;19939;-79
2021/11/09 01:20:15;;;;;;;;;;;;;;;;;;5128709;27;19935;-78
2021/11/09 01:22:45;;;;;;;;;;;;;;;;;;5129436;27;19931;-81
2021/11/09 01:25:12;;;;;;;;;;;;;;;;;;5130812;27;20339;-79
2021/11/09 01:27:40;;;;;;;;;;;;;;;;;;5132842;27;19986;-78
2021/11/09 01:30:08;;;;;;;;;;;;;;;;;;5129847;27;19927;-80
2021/11/09 01:32:35;;;;;;;;;;;;;;;;;;5129825;27;20027;-79
2021/11/09 01:35:04;;;;;;;;;;;;;;;;;;5128202;27;19943;-78
2021/11/09 01:37:32;;;;;;;;;;;;;;;;;;5130005;27;20299;-78
2021/11/09 01:40:00;;;;;;;;;;;;;;;;;;5127952;27;20139;-78
2021/11/09 01:42:27;;;;;;;;;;;;;;;;;;5129876;27;20205;-78
2021/11/09 01:44:54;;;;;;;;;;;;;;;;;;5129244;27;19935;-78
2021/11/09 01:47:21;;;;;;;;;;;;;;;;;;5128469;27;19931;-78
2021/11/09 01:49:48;;;;;;;;;;;;;;;;;;5128049;27;19931;-82
2021/11/09 01:52:17;;;;;;;;;;;;;;;;;;5130723;27;20001;-78
2021/11/09 01:54:44;;;;;;;;;;;;;;;;;;5129598;27;19927;-78
2021/11/09 01:57:11;;;;;;;;;;;;;;;;;;5128849;27;20352;-78
2021/11/09 01:59:39;;;;;;;;;;;;;;;;;;5127951;27;20384;-79
2021/11/09 02:02:06;;;;;;;;;;;;;;;;;;5130133;27;20340;-81
2021/11/09 02:04:33;;;;;;;;;;;;;;;;;;5128980;27;19927;-78
2021/11/09 02:07:01;;;;;;;;;;;;;;;;;;5128334;27;19927;-79
2021/11/09 02:09:30;;;;;;;;;;;;;;;;;;5130869;27;19931;-80
2021/11/09 02:11:57;;;;;;;;;;;;;;;;;;5125183;27;20377;-78
2021/11/09 02:14:24;;;;;;;;;;;;;;;;;;5120428;27;19934;-79
2021/11/09 02:16:52;;;;;;;;;;;;;;;;;;5128549;27;19923;-77
2021/11/09 02:19:20;;;;;;;;;;;;;;;;;;5130786;27;19933;-81
2021/11/09 02:21:48;;;;;;;;;;;;;;;;;;5131736;27;19923;-81
2021/11/09 02:24:15;;;;;;;;;;;;;;;;;;5129878;27;19923;-80
2021/11/09 02:26:42;;;;;;;;;;;;;;;;;;5127734;27;20098;-81
2021/11/09 02:29:10;;;;;;;;;;;;;;;;;;5129701;27;19927;-78
2021/11/09 02:31:37;;;;;;;;;;;;;;;;;;5129125;27;19963;-79
2021/11/09 02:34:04;;;;;;;;;;;;;;;;;;5127184;27;19983;-78
2021/11/09 02:36:31;;;;;;;;;;;;;;;;;;5129744;27;20316;-78
2021/11/09 02:39:00;;;;;;;;;;;;;;;;;;5128205;27;19928;-78
2021/11/09 02:41:27;;;;;;;;;;;;;;;;;;5128987;27;19931;-78
2021/11/09 02:43:57;;;;;;;;;;;;;;;;;;5128401;27;19927;-78
2021/11/09 02:46:34;;;;;;;;;;;;;;;;;;5126779;27;20277;-78
2021/11/09 02:49:06;;;;;;;;;;;;;;;;;;5128455;27;19927;-78
2021/11/09 02:51:37;;;;;;;;;;;;;;;;;;5129583;27;19935;-78
2021/11/09 02:54:09;;;;;;;;;;;;;;;;;;5128322;27;19979;-78
2021/11/09 02:56:40;;;;;;;;;;;;;;;;;;5127295;27;19950;-78
2021/11/09 02:59:17;;;;;;;;;;;;;;;;;;5128939;27;19939;-78
2021/11/09 03:01:51;;;;;;;;;;;;;;;;;;5127801;27;19939;-78
2021/11/09 03:04:26;;;;;;;;;;;;;;;;;;5129133;27;19935;-78
2021/11/09 03:06:57;;;;;;;;;;;;;;;;;;5127637;28;20399;-79
2021/11/09 03:09:37;;;;;;;;;;;;;;;;;;5128041;28;19924;-78
2021/11/09 03:12:05;;;;;;;;;;;;;;;;;;5122463;27;19927;-78
2021/11/09 03:14:33;;;;;;;;;;;;;;;;;;5123102;28;20007;-78
2021/11/09 03:17:04;;;;;;;;;;;;;;;;;;5127772;28;20016;-78
2021/11/09 03:19:37;;;;;;;;;;;;;;;;;;5131214;27;20004;-78
2021/11/09 03:44:18;;;;;;;;;;;;;;;;;;5128660;27;19943;-78
2021/11/09 03:46:47;;;;;;;;;;;;;;;;;;5130503;27;19923;-78
2021/11/09 03:49:16;;;;;;;;;;;;;;;;;;5130470;27;19927;-78
2021/11/09 03:51:43;;;;;;;;;;;;;;;;;;5131782;27;20298;-78
2021/11/09 03:54:13;;;;;;;;;;;;;;;;;;5130188;27;19938;-78
2021/11/09 03:56:45;;;;;;;;;;;;;;;;;;5131585;27;19927;-79
2021/11/09 03:59:16;;;;;;;;;;;;;;;;;;5132663;27;20221;-78
2021/11/09 04:01:53;;;;;;;;;;;;;;;;;;5133018;27;20057;-77
2021/11/09 04:04:33;;;;;;;;;;;;;;;;;;5132718;27;20375;-80
2021/11/09 04:07:07;;;;;;;;;;;;;;;;;;5130416;27;19923;-81
2021/11/09 04:09:45;;;;;;;;;;;;;;;;;;5130804;27;19927;-81
2021/11/09 04:12:25;;;;;;;;;;;;;;;;;;5126020;27;20033;-80
2021/11/09 04:14:57;;;;;;;;;;;;;;;;;;5129315;27;19928;-81
2021/11/09 04:17:32;;;;;;;;;;;;;;;;;;5132446;27;19988;-80
2021/11/09 04:20:05;;;;;;;;;;;;;;;;;;5130073;27;20026;-81
2021/11/09 04:25:44;;;;;;;;;;;;;;;;;;5129323;27;20276;-79
2021/11/09 04:28:19;;;;;;;;;;;;;;;;;;5131465;27;19923;-80
2021/11/09 05:09:17;;;;;;;;;;;;;;;;;;5130224;27;20460;-80
2021/11/09 05:11:44;;;;;;;;;;;;;;;;;;5131408;27;20283;-79
2021/11/09 05:14:12;;;;;;;;;;;;;;;;;;5119287;27;19934;-80
2021/11/09 05:16:41;;;;;;;;;;;;;;;;;;5128012;27;19931;-78
2021/11/09 05:19:09;;;;;;;;;;;;;;;;;;5130681;27;19927;-80
2021/11/09 05:21:55;;;;;;;;;;;;;;;;;;5130038;27;19938;-79
2021/11/09 05:24:22;;;;;;;;;;;;;;;;;;5131617;27;19927;-78
2021/11/09 05:26:49;;;;;;;;;;;;;;;;;;5129559;27;19934;-78
2021/11/09 05:29:16;;;;;;;;;;;;;;;;;;5129954;27;19927;-78
2021/11/09 05:31:45;;;;;;;;;;;;;;;;;;5129723;27;19935;-79
2021/11/09 05:34:12;;;;;;;;;;;;;;;;;;5128683;27;19927;-81
2021/11/09 05:36:41;;;;;;;;;;;;;;;;;;5130188;27;19939;-78
2021/11/09 05:39:14;;;;;;;;;;;;;;;;;;5123935;27;19931;-81
2021/11/09 05:41:42;;;;;;;;;;;;;;;;;;5127464;27;19932;-81
2021/11/09 05:44:10;;;;;;;;;;;;;;;;;;5132040;27;19931;-81
2021/11/09 05:46:38;;;;;;;;;;;;;;;;;;5130064;27;20386;-78
2021/11/09 05:49:07;;;;;;;;;;;;;;;;;;5132015;27;19924;-78
2021/11/09 05:51:35;;;;;;;;;;;;;;;;;;5129241;27;20248;-78
2021/11/09 05:54:03;;;;;;;;;;;;;;;;;;5129393;27;19970;-81
2021/11/09 05:56:30;;;;;;;;;;;;;;;;;;5128696;27;20343;-78
2021/11/09 05:58:58;;;;;;;;;;;;;;;;;;5132470;27;19927;-77
2021/11/09 06:01:25;;;;;;;;;;;;;;;;;;5130315;27;19924;-79
2021/11/09 06:03:52;;;;;;;;;;;;;;;;;;5132887;27;19923;-78
2021/11/09 06:06:23;;;;;;;;;;;;;;;;;;5132193;27;20422;-81
2021/11/09 06:08:50;;;;;;;;;;;;;;;;;;5130923;27;19931;-79
2021/11/09 06:11:17;;;;;;;;;;;;;;;;;;5131652;27;20004;-78
2021/11/09 06:13:44;;;;;;;;;;;;;;;;;;5133109;27;20356;-78
2021/11/09 06:16:11;;;;;;;;;;;;;;;;;;5131992;27;19978;-80
2021/11/09 06:18:38;;;;;;;;;;;;;;;;;;5132584;27;19935;-80
2021/11/09 06:21:06;;;;;;;;;;;;;;;;;;5132839;27;19928;-80
2021/11/09 06:23:34;;;;;;;;;;;;;;;;;;5127714;27;20359;-81
2021/11/09 06:26:01;;;;;;;;;;;;;;;;;;5118671;27;20322;-78
2021/11/09 06:28:29;;;;;;;;;;;;;;;;;;5117845;27;19938;-81
2021/11/09 06:30:56;;;;;;;;;;;;;;;;;;5118812;27;20275;-80
2021/11/09 06:33:24;;;;;;;;;;;;;;;;;;5131170;27;19928;-80
2021/11/09 06:35:52;;;;;;;;;;;;;;;;;;5127488;27;19938;-80
2021/11/09 06:38:19;;;;;;;;;;;;;;;;;;5125404;27;19973;-81
2021/11/09 06:40:48;;;;;;;;;;;;;;;;;;5120168;27;19923;-78
2021/11/09 06:43:15;;;;;;;;;;;;;;;;;;5120319;27;19928;-81
2021/11/09 06:45:42;;;;;;;;;;;;;;;;;;5127973;27;19935;-81
2021/11/09 06:48:09;;;;;;;;;;;;;;;;;;5129756;27;19938;-80
2021/11/09 06:50:37;;;;;;;;;;;;;;;;;;5125991;27;19970;-81
2021/11/09 06:53:04;;;;;;;;;;;;;;;;;;5123109;27;19942;-81
2021/11/09 06:55:34;;;;;;;;;;;;;;;;;;5110249;27;20269;-78
2021/11/09 06:58:02;;;;;;;;;;;;;;;;;;5108805;28;20044;-78
2021/11/09 07:00:29;;;;;;;;;;;;;;;;;;5115633;27;19927;-78
2021/11/09 07:02:56;;;;;;;;;;;;;;;;;;5130045;27;19931;-79
2021/11/09 07:05:24;;;;;;;;;;;;;;;;;;5129818;27;19928;-77
2021/11/09 07:07:51;;;;;;;;;;;;;;;;;;5129760;28;20385;-78
2021/11/09 07:10:18;;;;;;;;;;;;;;;;;;5129663;28;20352;-78
2021/11/09 07:12:45;;;;;;;;;;;;;;;;;;5119262;28;19928;-78
2021/11/09 07:15:15;;;;;;;;;;;;;;;;;;5128421;28;20317;-78
2021/11/09 07:17:42;;;;;;;;;;;;;;;;;;5129503;28;20542;-78
2021/11/09 07:20:10;;;;;;;;;;;;;;;;;;5132618;27;20298;-79
2021/11/09 07:22:37;;;;;;;;;;;;;;;;;;5134732;27;19939;-80
2021/11/09 07:25:05;;;;;;;;;;;;;;;;;;5134671;27;19923;-80
2021/11/09 07:27:32;;;;;;;;;;;;;;;;;;5126435;27;19927;-78
2021/11/09 07:30:01;;;;;;;;;;;;;;;;;;5114771;28;19928;-80
2021/11/09 07:32:30;;;;;;;;;;;;;;;;;;5133982;27;19938;-80
2021/11/09 07:34:57;;;;;;;;;;;;;;;;;;5134648;27;19938;-78
2021/11/09 07:37:25;;;;;;;;;;;;;;;;;;5133999;27;19923;-78
2021/11/09 07:39:52;;;;;;;;;;;;;;;;;;5133897;27;19970;-80
2021/11/09 07:42:19;;;;;;;;;;;;;;;;;;5133920;27;19929;-77
2021/11/09 07:44:47;;;;;;;;;;;;;;;;;;5132764;27;19991;-80
2021/11/09 07:47:14;;;;;;;;;;;;;;;;;;5134105;27;20307;-78
2021/11/09 07:49:43;;;;;;;;;;;;;;;;;;5134619;27;19927;-80
2021/11/09 07:52:11;;;;;;;;;;;;;;;;;;5134507;27;19979;-78
2021/11/09 07:54:40;;;;;;;;;;;;;;;;;;5134090;27;19927;-78
2021/11/09 07:57:10;;;;;;;;;;;;;;;;;;5133304;27;19971;-80
2021/11/09 07:59:41;;;;;;;;;;;;;;;;;;5124557;27;20352;-79
2021/11/09 08:02:12;;;;;;;;;;;;;;;;;;5133346;27;19992;-80
2021/11/09 08:04:45;;;;;;;;;;;;;;;;;;5133798;27;20035;-79
2021/11/09 08:07:17;;;;;;;;;;;;;;;;;;5121169;27;20041;-78
2021/11/09 08:09:44;;;;;;;;;;;;;;;;;;5133306;27;19928;-83
2021/11/09 08:12:11;;;;;;;;;;;;;;;;;;5133986;27;19927;-78
2021/11/09 08:14:38;;;;;;;;;;;;;;;;;;5116919;27;20281;-80
2021/11/09 08:17:06;;;;;;;;;;;;;;;;;;5113157;28;20272;-79
2021/11/09 08:19:33;;;;;;;;;;;;;;;;;;5141548;27;20733;-78
2021/11/09 08:22:00;;;;;;;;;;;;;;;;;;5123222;27;20216;-78
2021/11/09 08:24:30;;;;;;;;;;;;;;;;;;5112720;28;20405;-80
2021/11/09 08:26:58;;;;;;;;;;;;;;;;;;5112430;28;19993;-84
2021/11/09 08:29:26;;;;;;;;;;;;;;;;;;5112588;28;19924;-78
2021/11/09 08:31:54;;;;;;;;;;;;;;;;;;5114462;27;20399;-80
2021/11/09 08:34:22;;;;;;;;;;;;;;;;;;5133151;27;19932;-80
2021/11/09 08:36:50;;;;;;;;;;;;;;;;;;5132581;27;19962;-80
2021/11/09 08:39:22;;;;;;;;;;;;;;;;;;5132016;27;19931;-78
2021/11/09 08:41:57;;;;;;;;;;;;;;;;;;5133005;27;19943;-77
2021/11/09 08:44:26;;;;;;;;;;;;;;;;;;5132041;27;20023;-80
2021/11/09 08:46:55;;;;;;;;;;;;;;;;;;5132452;27;20305;-78
2021/11/09 08:49:24;;;;;;;;;;;;;;;;;;5132809;27;20025;-80
2021/11/09 08:51:52;;;;;;;;;;;;;;;;;;5132596;27;19928;-77
2021/11/09 08:54:21;;;;;;;;;;;;;;;;;;5133101;27;19950;-80
2021/11/09 08:56:56;;;;;;;;;;;;;;;;;;5132317;27;20336;-80
2021/11/09 09:04:55;;;;;;;;;;;;;;;;;;5132598;27;20320;-77
2021/11/09 09:07:22;;;;;;;;;;;;;;;;;;5129337;27;19951;-77
2021/11/09 09:09:50;;;;;;;;;;;;;;;;;;5130233;27;19928;-78
2021/11/09 09:12:17;;;;;;;;;;;;;;;;;;5130746;27;19963;-77
2021/11/09 09:14:45;;;;;;;;;;;;;;;;;;5125000;27;20214;-80
2021/11/09 09:17:13;;;;;;;;;;;;;;;;;;5131076;27;19934;-78
2021/11/09 09:19:42;;;;;;;;;;;;;;;;;;5130978;27;19933;-80
2021/11/09 09:22:11;;;;;;;;;;;;;;;;;;5110103;28;19930;-80
2021/11/09 09:24:46;;;;;;;;;;;;;;;;;;5110279;27;19924;-78
2021/11/09 09:27:21;;;;;;;;;;;;;;;;;;5118787;27;20022;-78
2021/11/09 09:32:53;;;;;;;;;;;;;;;;;;5130501;27;20274;-80
2021/11/09 09:55:15;;;;;;;;;;;;;;;;;;5066460;28;20253;-84
2021/11/09 09:57:43;;;;;;;;;;;;;;;;;;5127081;27;19964;-77
2021/11/09 10:00:10;;;;;;;;;;;;;;;;;;5129452;27;19927;-78
2021/11/09 10:02:48;;;;;;;;;;;;;;;;;;5129717;27;19928;-79
2021/11/09 10:05:15;;;;;;;;;;;;;;;;;;5129370;27;19924;-79
2021/11/09 10:07:44;;;;;;;;;;;;;;;;;;5129269;27;19930;-80
2021/11/09 10:10:15;;;;;;;;;;;;;;;;;;5129494;27;19927;-78
2021/11/09 10:12:43;;;;;;;;;;;;;;;;;;5119823;27;19924;-80
2021/11/09 10:15:11;;;;;;;;;;;;;;;;;;5127145;27;19935;-77
2021/11/09 10:17:39;;;;;;;;;;;;;;;;;;5128687;27;20442;-80
2021/11/09 10:20:11;;;;;;;;;;;;;;;;;;5129884;27;20283;-80
2021/11/09 10:22:39;;;;;;;;;;;;;;;;;;5121797;27;19928;-78
2021/11/09 10:25:08;;;;;;;;;;;;;;;;;;5107894;28;20419;-78
2021/11/09 10:27:36;;;;;;;;;;;;;;;;;;5109022;28;19934;-80
2021/11/09 10:30:08;;;;;;;;;;;;;;;;;;5108844;28;19939;-80
2021/11/09 10:32:35;;;;;;;;;;;;;;;;;;5109241;28;19924;-80
2021/11/09 10:35:04;;;;;;;;;;;;;;;;;;5109075;28;20429;-79
2021/11/09 10:37:34;;;;;;;;;;;;;;;;;;5108250;28;19927;-80
2021/11/09 10:40:05;;;;;;;;;;;;;;;;;;5125805;27;19927;-80
2021/11/09 10:42:33;;;;;;;;;;;;;;;;;;5128750;27;19927;-80
2021/11/09 10:45:02;;;;;;;;;;;;;;;;;;5128387;27;19927;-80
2021/11/09 10:47:30;;;;;;;;;;;;;;;;;;5129225;27;19936;-79
2021/11/09 10:49:58;;;;;;;;;;;;;;;;;;5129854;27;19942;-78
2021/11/09 10:52:29;;;;;;;;;;;;;;;;;;5129091;27;20031;-80
2021/11/09 10:55:03;;;;;;;;;;;;;;;;;;5128698;27;20339;-78
2021/11/09 10:57:38;;;;;;;;;;;;;;;;;;5129024;27;20376;-80
2021/11/09 11:00:17;;;;;;;;;;;;;;;;;;5129123;27;19927;-80
2021/11/09 11:05:28;;;;;;;;;;;;;;;;;;5128825;27;19944;-80
2021/11/09 11:07:56;;;;;;;;;;;;;;;;;;5128812;27;19934;-80
2021/11/09 11:10:30;;;;;;;;;;;;;;;;;;5128739;28;19928;-77
2021/11/09 11:13:12;;;;;;;;;;;;;;;;;;5129428;28;20344;-78
2021/11/09 11:15:40;;;;;;;;;;;;;;;;;;5107735;28;19928;-80
2021/11/09 11:18:07;;;;;;;;;;;;;;;;;;5112543;28;20319;-81
2021/11/09 11:20:35;;;;;;;;;;;;;;;;;;5115695;28;19924;-81
2021/11/09 11:23:02;;;;;;;;;;;;;;;;;;5128481;28;20041;-78
2021/11/09 11:25:30;;;;;;;;;;;;;;;;;;5129233;27;20296;-80
2021/11/09 11:27:58;;;;;;;;;;;;;;;;;;5128781;28;19923;-79
2021/11/09 11:30:25;;;;;;;;;;;;;;;;;;5128500;28;20313;-80
2021/11/09 11:32:52;;;;;;;;;;;;;;;;;;5128764;28;20339;-81
2021/11/09 11:35:20;;;;;;;;;;;;;;;;;;5117962;27;20220;-78
2021/11/09 11:37:47;;;;;;;;;;;;;;;;;;5108435;28;19955;-80
2021/11/09 11:40:16;;;;;;;;;;;;;;;;;;5110358;28;19943;-80
2021/11/09 11:42:44;;;;;;;;;;;;;;;;;;5129056;28;20287;-78
2021/11/09 11:45:11;;;;;;;;;;;;;;;;;;5127903;28;19927;-79
2021/11/09 11:47:38;;;;;;;;;;;;;;;;;;5128402;28;19928;-79
2021/11/09 11:50:07;;;;;;;;;;;;;;;;;;5127755;28;19928;-79
2021/11/09 11:52:42;;;;;;;;;;;;;;;;;;5128540;28;19934;-80
2021/11/09 11:55:21;;;;;;;;;;;;;;;;;;5128359;28;20034;-80
2021/11/09 11:57:51;;;;;;;;;;;;;;;;;;5128109;28;20135;-78
2021/11/09 12:00:39;;;;;;;;;;;;;;;;;;5128487;28;20311;-80
2021/11/09 12:03:22;;;;;;;;;;;;;;;;;;5123823;28;19991;-78
2021/11/09 12:05:49;;;;;;;;;;;;;;;;;;5114412;27;20310;-80
2021/11/09 12:08:17;;;;;;;;;;;;;;;;;;5130933;27;20252;-81
2021/11/09 12:10:47;;;;;;;;;;;;;;;;;;5131913;27;20273;-80
2021/11/09 12:13:16;;;;;;;;;;;;;;;;;;5119241;27;20005;-78
2021/11/09 12:15:53;;;;;;;;;;;;;;;;;;5130569;27;19923;-77
2021/11/09 12:18:38;;;;;;;;;;;;;;;;;;5127100;27;19953;-80
2021/11/09 12:21:06;;;;;;;;;;;;;;;;;;5122761;27;19924;-77
2021/11/09 12:23:36;;;;;;;;;;;;;;;;;;5132367;27;19934;-78
2021/11/09 12:26:04;;;;;;;;;;;;;;;;;;5132960;27;19992;-78
2021/11/09 12:28:33;;;;;;;;;;;;;;;;;;5134717;27;19927;-80
2021/11/09 12:31:09;;;;;;;;;;;;;;;;;;5133059;27;19928;-80
2021/11/09 12:33:45;;;;;;;;;;;;;;;;;;5131849;27;19927;-78
2021/11/09 12:36:22;;;;;;;;;;;;;;;;;;5130946;27;19938;-80
2021/11/09 12:38:51;;;;;;;;;;;;;;;;;;5131228;27;19928;-79
2021/11/09 12:41:19;;;;;;;;;;;;;;;;;;5132080;27;19993;-80
2021/11/09 12:43:49;;;;;;;;;;;;;;;;;;5131771;27;19927;-80
2021/11/09 12:46:23;;;;;;;;;;;;;;;;;;5131078;27;19927;-78
2021/11/09 12:48:55;;;;;;;;;;;;;;;;;;5132116;27;19927;-78
2021/11/09 12:51:25;;;;;;;;;;;;;;;;;;5131978;27;19923;-81
2021/11/09 12:53:53;;;;;;;;;;;;;;;;;;5126799;27;19935;-80
2021/11/09 12:56:24;;;;;;;;;;;;;;;;;;5115622;27;19934;-80
2021/11/09 12:58:57;;;;;;;;;;;;;;;;;;5131161;27;19927;-78
2021/11/09 13:01:32;;;;;;;;;;;;;;;;;;5123231;27;19932;-80
2021/11/09 13:06:50;;;;;;;;;;;;;;;;;;5121807;27;19938;-79
2021/11/09 13:09:23;;;;;;;;;;;;;;;;;;5128166;27;19984;-78
2021/11/09 13:11:53;;;;;;;;;;;;;;;;;;5127575;27;20363;-78
2021/11/09 13:14:22;;;;;;;;;;;;;;;;;;5122079;27;20014;-80
2021/11/09 13:16:50;;;;;;;;;;;;;;;;;;5130172;27;20292;-79
2021/11/09 13:19:23;;;;;;;;;;;;;;;;;;5113959;27;19928;-78
2021/11/09 13:22:06;;;;;;;;;;;;;;;;;;5110085;28;19935;-81
2021/11/09 13:24:34;;;;;;;;;;;;;;;;;;5110412;28;20314;-80
2021/11/09 13:27:01;;;;;;;;;;;;;;;;;;5109952;28;19971;-79
2021/11/09 13:29:37;;;;;;;;;;;;;;;;;;5109362;28;19950;-81
2021/11/09 13:32:07;;;;;;;;;;;;;;;;;;5110061;28;20163;-81
2021/11/09 13:34:34;;;;;;;;;;;;;;;;;;5110167;28;19953;-81
2021/11/09 13:37:01;;;;;;;;;;;;;;;;;;5109887;28;19976;-80
2021/11/09 13:39:28;;;;;;;;;;;;;;;;;;5109794;28;19924;-81
2021/11/09 13:41:55;;;;;;;;;;;;;;;;;;5110210;28;20000;-81
2021/11/09 13:44:22;;;;;;;;;;;;;;;;;;5110503;28;19935;-78
2021/11/09 13:46:51;;;;;;;;;;;;;;;;;;5119419;27;20305;-78
2021/11/09 13:49:20;;;;;;;;;;;;;;;;;;5118588;27;19930;-78
2021/11/09 13:51:50;;;;;;;;;;;;;;;;;;5109982;28;19951;-78
2021/11/09 13:54:18;;;;;;;;;;;;;;;;;;5109437;28;20189;-79
2021/11/09 13:56:47;;;;;;;;;;;;;;;;;;5109573;28;19984;-78
2021/11/09 13:59:16;;;;;;;;;;;;;;;;;;5122701;27;19935;-78
2021/11/09 14:01:50;;;;;;;;;;;;;;;;;;5130605;27;19923;-78
2021/11/09 14:10:10;;;;;;;;;;;;;;;;;;5129618;27;19927;-78
2021/11/09 14:12:59;;;;;;;;;;;;;;;;;;5120773;27;19989;-83
2021/11/09 14:18:13;;;;;;;;;;;;;;;;;;5125269;27;20663;-80
2021/11/09 14:20:51;;;;;;;;;;;;;;;;;;5116908;27;19966;-81
2021/11/09 14:23:27;;;;;;;;;;;;;;;;;;5123095;27;19924;-78
2021/11/09 14:25:54;;;;;;;;;;;;;;;;;;5128610;27;19931;-78
2021/11/09 14:28:32;;;;;;;;;;;;;;;;;;5128649;27;19923;-80
2021/11/09 14:31:09;;;;;;;;;;;;;;;;;;5129039;27;20046;-80
2021/11/09 14:33:37;;;;;;;;;;;;;;;;;;5129666;27;20267;-80
2021/11/09 14:36:20;;;;;;;;;;;;;;;;;;5128484;27;19927;-80
2021/11/09 14:38:47;;;;;;;;;;;;;;;;;;5126981;27;20022;-78
2021/11/09 14:41:23;;;;;;;;;;;;;;;;;;5127595;27;19938;-81
2021/11/09 14:43:56;;;;;;;;;;;;;;;;;;5126645;27;20439;-79
2021/11/09 14:46:27;;;;;;;;;;;;;;;;;;5127078;27;19937;-81
2021/11/09 14:49:05;;;;;;;;;;;;;;;;;;5120999;27;19931;-80
2021/11/09 14:51:34;;;;;;;;;;;;;;;;;;5112817;27;19927;-78
2021/11/09 14:54:12;;;;;;;;;;;;;;;;;;5130127;27;19992;-77
2021/11/09 14:56:40;;;;;;;;;;;;;;;;;;5130525;27;19931;-78
2021/11/09 14:59:07;;;;;;;;;;;;;;;;;;5114267;28;19930;-78
2021/11/09 15:01:37;;;;;;;;;;;;;;;;;;5130343;27;19942;-80
2021/11/09 15:04:09;;;;;;;;;;;;;;;;;;5130868;27;20470;-80
2021/11/09 15:06:53;;;;;;;;;;;;;;;;;;5130265;27;19937;-79
2021/11/09 15:12:11;;;;;;;;;;;;;;;;;;5112846;28;20014;-78
2021/11/09 15:25:51;;;;;;;;;;;;;;;;;;5130191;27;20093;-79
2021/11/09 15:28:20;;;;;;;;;;;;;;;;;;5130666;28;20260;-80
2021/11/09 15:30:49;;;;;;;;;;;;;;;;;;5130493;28;19927;-80
2021/11/09 15:33:21;;;;;;;;;;;;;;;;;;5130724;28;19989;-80
2021/11/09 15:36:08;;;;;;;;;;;;;;;;;;5132721;27;19927;-80
2021/11/09 15:38:37;;;;;;;;;;;;;;;;;;5130075;28;19973;-77
2021/11/09 15:41:04;;;;;;;;;;;;;;;;;;5132916;27;19969;-80
2021/11/09 15:43:33;;;;;;;;;;;;;;;;;;5134686;27;19927;-77
2021/11/09 15:46:00;;;;;;;;;;;;;;;;;;5134399;27;19994;-77
2021/11/09 15:48:28;;;;;;;;;;;;;;;;;;5134222;27;20374;-80
2021/11/09 15:50:55;;;;;;;;;;;;;;;;;;5134270;27;19992;-80
2021/11/09 15:53:22;;;;;;;;;;;;;;;;;;5129398;27;19988;-80
2021/11/09 15:55:51;;;;;;;;;;;;;;;;;;5135651;27;19927;-80
2021/11/09 15:58:18;;;;;;;;;;;;;;;;;;5135845;27;19930;-80
2021/11/09 16:00:46;;;;;;;;;;;;;;;;;;5135620;27;20046;-80
2021/11/09 16:03:13;;;;;;;;;;;;;;;;;;5135567;27;20352;-77
2021/11/09 16:05:41;;;;;;;;;;;;;;;;;;5135559;27;19954;-78
2021/11/09 16:08:09;;;;;;;;;;;;;;;;;;5134925;27;19923;-77
2021/11/09 16:10:36;;;;;;;;;;;;;;;;;;5135656;27;19927;-77
2021/11/09 16:13:05;;;;;;;;;;;;;;;;;;5134535;27;20306;-78
2021/11/09 16:15:33;;;;;;;;;;;;;;;;;;5114630;28;20426;-78
2021/11/09 16:18:00;;;;;;;;;;;;;;;;;;5115016;28;19927;-78
2021/11/09 16:20:28;;;;;;;;;;;;;;;;;;5114296;28;19924;-78
2021/11/09 16:22:55;;;;;;;;;;;;;;;;;;5114849;28;20022;-78
2021/11/09 16:25:22;;;;;;;;;;;;;;;;;;5114925;28;19924;-80
2021/11/09 16:27:49;;;;;;;;;;;;;;;;;;5114855;28;20382;-80
2021/11/09 16:30:19;;;;;;;;;;;;;;;;;;5115038;28;19936;-78
2021/11/09 16:32:48;;;;;;;;;;;;;;;;;;5114879;28;19924;-78
2021/11/09 16:35:23;;;;;;;;;;;;;;;;;;5114615;28;19967;-79
2021/11/09 16:37:50;;;;;;;;;;;;;;;;;;5116466;28;19928;-80
2021/11/09 16:40:21;;;;;;;;;;;;;;;;;;5114331;28;19924;-77
2021/11/09 16:42:52;;;;;;;;;;;;;;;;;;5114772;28;19924;-78
2021/11/09 16:45:25;;;;;;;;;;;;;;;;;;5114469;27;19976;-78
2021/11/09 16:47:53;;;;;;;;;;;;;;;;;;5114280;28;19965;-80
2021/11/09 16:53:02;;;;;;;;;;;;;;;;;;5104371;28;19931;-80
2021/11/09 16:58:37;;;;;;;;;;;;;;;;;;5093703;28;19950;-79
2021/11/09 17:01:15;;;;;;;;;;;;;;;;;;5093721;28;19932;-79
2021/11/09 17:03:55;;;;;;;;;;;;;;;;;;5093923;28;19938;-80
2021/11/09 17:06:46;;;;;;;;;;;;;;;;;;5086644;28;20023;-80
2021/11/09 18:15:40;;;;;;;;;;;;;;;;;;5126429;27;19976;-79
2021/11/09 18:20:52;;;;;;;;;;;;;;;;;;5133210;27;19950;-78
2021/11/09 18:23:20;;;;;;;;;;;;;;;;;;5133270;27;19934;-78
2021/11/09 18:25:47;;;;;;;;;;;;;;;;;;5133117;27;19928;-82
2021/11/09 18:28:15;;;;;;;;;;;;;;;;;;5132846;27;20415;-79
2021/11/09 18:30:43;;;;;;;;;;;;;;;;;;5133563;27;19935;-82
2021/11/09 18:33:12;;;;;;;;;;;;;;;;;;5132907;27;19938;-79
2021/11/09 18:35:40;;;;;;;;;;;;;;;;;;5133138;27;19967;-82
2021/11/09 18:38:08;;;;;;;;;;;;;;;;;;5132692;27;19923;-82
2021/11/09 18:40:37;;;;;;;;;;;;;;;;;;5132885;27;19931;-82
2021/11/09 18:43:04;;;;;;;;;;;;;;;;;;5133567;27;19932;-82
2021/11/09 18:45:33;;;;;;;;;;;;;;;;;;5132679;27;19927;-82
2021/11/09 18:48:00;;;;;;;;;;;;;;;;;;5132796;27;19938;-79
2021/11/09 18:50:29;;;;;;;;;;;;;;;;;;5133122;27;19928;-82
2021/11/09 18:52:56;;;;;;;;;;;;;;;;;;5132633;27;19923;-82
2021/11/09 18:55:23;;;;;;;;;;;;;;;;;;5132405;27;20271;-79
2021/11/09 18:57:52;;;;;;;;;;;;;;;;;;5132602;27;19928;-79
2021/11/09 19:00:20;;;;;;;;;;;;;;;;;;5132611;27;19924;-83
2021/11/09 19:02:48;;;;;;;;;;;;;;;;;;5132658;27;20287;-79
2021/11/09 19:05:18;;;;;;;;;;;;;;;;;;5132613;27;20182;-79
2021/11/09 19:07:46;;;;;;;;;;;;;;;;;;5132433;27;20291;-79
2021/11/09 19:10:13;;;;;;;;;;;;;;;;;;5132379;27;19924;-79
2021/11/09 19:12:40;;;;;;;;;;;;;;;;;;5132458;28;19927;-79
2021/11/09 19:15:11;;;;;;;;;;;;;;;;;;5125692;27;20272;-79
2021/11/09 19:17:39;;;;;;;;;;;;;;;;;;5132294;28;19934;-82
2021/11/09 19:20:07;;;;;;;;;;;;;;;;;;5132619;28;19927;-79
2021/11/09 19:22:35;;;;;;;;;;;;;;;;;;5132325;28;20092;-82
2021/11/09 19:25:04;;;;;;;;;;;;;;;;;;5132382;28;19923;-82
2021/11/09 19:27:31;;;;;;;;;;;;;;;;;;5132270;28;19927;-82
2021/11/09 19:30:01;;;;;;;;;;;;;;;;;;5132460;28;19924;-82
2021/11/09 19:32:30;;;;;;;;;;;;;;;;;;5132629;28;19923;-82
2021/11/09 19:34:58;;;;;;;;;;;;;;;;;;5132100;28;19930;-79
2021/11/09 19:37:25;;;;;;;;;;;;;;;;;;5131898;28;20022;-79
2021/11/09 19:39:52;;;;;;;;;;;;;;;;;;5132033;28;19938;-79
2021/11/09 19:42:26;;;;;;;;;;;;;;;;;;5132054;28;19923;-79
2021/11/09 19:44:54;;;;;;;;;;;;;;;;;;5132124;28;19927;-80
2021/11/09 19:47:21;;;;;;;;;;;;;;;;;;5132023;28;19924;-80
2021/11/09 19:49:49;;;;;;;;;;;;;;;;;;5132161;28;19924;-79
2021/11/09 19:52:17;;;;;;;;;;;;;;;;;;5132266;28;20016;-79
2021/11/09 19:54:44;;;;;;;;;;;;;;;;;;5132132;28;19949;-80
2021/11/09 19:57:13;;;;;;;;;;;;;;;;;;5131985;28;19967;-79
2021/11/09 19:59:41;;;;;;;;;;;;;;;;;;5132134;28;19934;-82
2021/11/09 20:02:11;;;;;;;;;;;;;;;;;;5132412;28;19923;-81
2021/11/09 20:04:39;;;;;;;;;;;;;;;;;;5131905;28;20025;-81
2021/11/09 20:07:07;;;;;;;;;;;;;;;;;;5131711;28;20360;-79
2021/11/09 20:09:36;;;;;;;;;;;;;;;;;;5131557;28;19923;-79
2021/11/09 20:12:04;;;;;;;;;;;;;;;;;;5129706;28;20352;-79
2021/11/09 20:14:35;;;;;;;;;;;;;;;;;;5131788;28;19924;-78
2021/11/09 20:17:04;;;;;;;;;;;;;;;;;;5131770;28;20034;-81